createdAt,value
2023-06-29T00:01:14.338Z,1.80
2023-06-29T00:03:44.815Z,1.75
2023-06-29T00:06:15.221Z,1.88
2023-06-29T00:08:45.478Z,1.50
2023-06-29T00:11:15.207Z,1.42
2023-06-29T00:13:44.935Z,1.75
2023-06-29T00:16:18.625Z,2.13
2023-06-29T00:18:48.315Z,1.35
2023-06-29T00:21:17.913Z,1.52
2023-06-29T00:23:47.605Z,1.63
2023-06-29T00:26:17.406Z,1.58
2023-06-29T00:28:46.999Z,1.52
2023-06-29T00:31:20.141Z,1.70
2023-06-29T00:33:49.845Z,1.77
2023-06-29T00:36:19.556Z,1.52
2023-06-29T00:38:49.447Z,1.88
2023-06-29T00:41:20.190Z,1.80
2023-06-29T00:43:49.961Z,1.63
2023-06-29T00:46:23.918Z,2.40
2023-06-29T00:48:54.147Z,1.58
2023-06-29T00:51:23.837Z,2.05
2023-06-29T00:53:53.434Z,2.13
2023-06-29T00:56:23.968Z,1.85
2023-06-29T00:58:53.687Z,2.00
2023-06-29T01:01:26.092Z,1.92
2023-06-29T01:03:59.320Z,1.60
2023-06-29T01:06:33.876Z,1.58
2023-06-29T01:09:05.963Z,1.80
2023-06-29T01:11:36.904Z,1.92
2023-06-29T01:14:08.292Z,1.80
2023-06-29T01:16:41.086Z,1.75
2023-06-29T01:19:12.982Z,2.00
2023-06-29T01:21:48.317Z,1.73
2023-06-29T01:24:18.596Z,1.98
2023-06-29T01:26:51.260Z,1.42
2023-06-29T01:29:25.793Z,1.67
2023-06-29T01:32:05.218Z,2.13
2023-06-29T01:34:36.207Z,1.85
2023-06-29T01:37:08.876Z,1.67
2023-06-29T01:39:54.438Z,2.00
2023-06-29T01:42:27.877Z,1.98
2023-06-29T01:44:57.750Z,1.85
2023-06-29T01:47:27.477Z,1.92
2023-06-29T01:49:57.404Z,1.35
2023-06-29T01:52:27.028Z,1.85
2023-06-29T01:54:56.914Z,2.15
2023-06-29T01:57:29.171Z,2.22
2023-06-29T01:59:58.934Z,2.00
2023-06-29T02:02:28.648Z,2.20
2023-06-29T02:05:01.649Z,1.65
2023-06-29T02:07:31.497Z,1.83
2023-06-29T02:10:01.217Z,1.88
2023-06-29T02:12:33.526Z,1.85
2023-06-29T02:15:03.187Z,1.90
2023-06-29T02:17:32.875Z,1.90
2023-06-29T02:20:02.598Z,1.90
2023-06-29T02:22:32.232Z,2.10
2023-06-29T02:25:01.831Z,1.67
2023-06-29T02:27:34.238Z,2.15
2023-06-29T02:30:04.447Z,1.95
2023-06-29T02:32:34.385Z,1.90
2023-06-29T02:35:04.953Z,2.00
2023-06-29T02:37:35.830Z,2.03
2023-06-29T02:40:05.579Z,2.05
2023-06-29T02:42:38.178Z,1.88
2023-06-29T02:45:08.657Z,2.17
2023-06-29T02:47:38.285Z,1.92
2023-06-29T02:50:08.540Z,2.17
2023-06-29T02:52:46.286Z,1.92
2023-06-29T02:55:15.935Z,1.98
2023-06-29T02:57:48.167Z,2.58
2023-06-29T03:00:18.734Z,1.90
2023-06-29T03:02:48.555Z,2.38
2023-06-29T03:05:18.391Z,2.05
2023-06-29T03:07:48.141Z,1.88
2023-06-29T03:10:17.856Z,2.40
2023-06-29T03:12:50.127Z,2.13
2023-06-29T03:15:20.170Z,2.15
2023-06-29T03:17:49.839Z,1.70
2023-06-29T03:20:19.532Z,1.70
2023-06-29T03:22:49.151Z,2.00
2023-06-29T03:25:18.906Z,1.70
2023-06-29T03:27:51.176Z,1.90
2023-06-29T03:30:20.858Z,2.13
2023-06-29T03:32:50.665Z,1.95
2023-06-29T03:35:20.403Z,2.33
2023-06-29T03:37:50.074Z,1.98
2023-06-29T03:40:19.852Z,1.60
2023-06-29T03:42:52.069Z,2.28
2023-06-29T03:45:21.812Z,2.20
2023-06-29T03:47:51.502Z,2.22
2023-06-29T03:50:21.376Z,2.75
2023-06-29T03:52:51.061Z,2.05
2023-06-29T03:55:21.233Z,2.05
2023-06-29T03:57:53.608Z,1.85
2023-06-29T04:00:23.329Z,2.00
2023-06-29T04:02:54.216Z,2.10
2023-06-29T04:05:23.990Z,2.58
2023-06-29T04:07:54.007Z,2.40
2023-06-29T04:10:23.838Z,2.33
2023-06-29T04:12:56.093Z,2.15
2023-06-29T04:15:25.919Z,1.90
2023-06-29T04:17:55.706Z,2.55
2023-06-29T04:20:25.420Z,2.55
2023-06-29T04:22:55.157Z,2.28
2023-06-29T04:25:25.224Z,2.38
2023-06-29T04:27:57.497Z,2.38
2023-06-29T04:30:27.328Z,3.22
2023-06-29T04:33:01.020Z,2.28
2023-06-29T04:35:31.039Z,2.67
2023-06-29T04:38:00.654Z,2.63
2023-06-29T04:40:30.419Z,2.53
2023-06-29T04:43:03.342Z,2.20
2023-06-29T04:45:33.508Z,2.50
2023-06-29T04:48:03.616Z,2.60
2023-06-29T04:50:37.831Z,2.80
2023-06-29T04:53:10.773Z,2.70
2023-06-29T04:55:41.164Z,2.95
2023-06-29T04:58:13.690Z,2.45
2023-06-29T05:00:43.340Z,2.85
2023-06-29T05:03:13.158Z,2.70
2023-06-29T05:05:43.142Z,2.70
2023-06-29T05:08:13.018Z,2.50
2023-06-29T05:10:43.876Z,2.80
2023-06-29T05:13:16.103Z,2.15
2023-06-29T05:15:49.121Z,2.65
2023-06-29T05:18:18.852Z,2.25
2023-06-29T05:20:49.014Z,2.70
2023-06-29T05:23:18.731Z,2.60
2023-06-29T05:25:48.378Z,2.40
2023-06-29T05:28:20.736Z,2.60
2023-06-29T05:30:50.549Z,2.40
2023-06-29T05:33:20.238Z,3.10
2023-06-29T05:35:50.064Z,2.38
2023-06-29T05:38:19.639Z,2.33
2023-06-29T05:40:49.259Z,2.60
2023-06-29T05:43:21.467Z,2.22
2023-06-29T05:45:51.126Z,2.50
2023-06-29T05:48:20.973Z,2.45
2023-06-29T05:50:50.742Z,2.45
2023-06-29T05:53:20.433Z,3.10
2023-06-29T05:55:50.224Z,1.88
2023-06-29T05:58:22.585Z,2.25
2023-06-29T06:00:52.331Z,2.15
2023-06-29T06:03:22.985Z,2.22
2023-06-29T06:05:52.873Z,2.67
2023-06-29T06:08:22.563Z,2.67
2023-06-29T06:10:52.978Z,2.17
2023-06-29T06:13:25.312Z,2.45
2023-06-29T06:15:56.035Z,2.25
2023-06-29T06:18:25.886Z,2.78
2023-06-29T06:20:55.744Z,2.17
2023-06-29T06:23:26.236Z,2.17
2023-06-29T06:25:55.924Z,2.47
2023-06-29T06:28:28.341Z,1.73
2023-06-29T06:30:58.235Z,1.60
2023-06-29T06:33:31.503Z,1.45
2023-06-29T06:36:01.417Z,1.90
2023-06-29T06:38:45.034Z,1.83
2023-06-29T06:41:19.059Z,1.98
2023-06-29T06:43:51.246Z,2.30
2023-06-29T06:46:21.077Z,1.42
2023-06-29T06:48:50.920Z,1.67
2023-06-29T06:51:20.694Z,1.67
2023-06-29T06:53:50.358Z,1.85
2023-06-29T06:56:20.106Z,2.00
2023-06-29T06:58:52.475Z,1.75
2023-06-29T07:01:26.089Z,1.58
2023-06-29T07:03:56.097Z,1.65
2023-06-29T07:06:25.885Z,1.70
2023-06-29T07:08:55.556Z,1.63
2023-06-29T07:11:25.220Z,1.98
2023-06-29T07:13:57.500Z,1.77
2023-06-29T07:16:27.578Z,1.63
2023-06-29T07:21:40.072Z,1.85
2023-06-29T07:24:10.339Z,1.30
2023-06-29T07:26:40.524Z,1.45
2023-06-29T07:29:12.951Z,1.75
2023-06-29T07:31:42.738Z,1.88
2023-06-29T07:34:12.413Z,1.67
2023-06-29T07:36:43.271Z,1.80
2023-06-29T07:39:13.019Z,1.73
2023-06-29T07:41:42.702Z,1.40
2023-06-29T07:44:15.607Z,1.40
2023-06-29T07:46:45.384Z,1.73
2023-06-29T07:49:15.048Z,1.63
2023-06-29T07:51:44.763Z,1.75
2023-06-29T07:54:14.538Z,1.60
2023-06-29T07:59:19.640Z,1.95
2023-06-29T08:01:51.194Z,1.45
2023-06-29T08:06:45.597Z,1.27
2023-06-29T08:07:11.147Z,1.83
2023-06-29T08:09:41.613Z,1.80
2023-06-29T08:12:11.649Z,2.10
2023-06-29T08:14:45.042Z,2.05
2023-06-29T08:17:14.760Z,1.55
2023-06-29T08:19:44.418Z,1.73
2023-06-29T08:22:14.494Z,1.88
2023-06-29T08:24:44.180Z,1.42
2023-06-29T08:27:13.894Z,1.58
2023-06-29T08:29:46.202Z,1.50
2023-06-29T08:32:16.907Z,2.08
2023-06-29T08:34:47.196Z,1.77
2023-06-29T08:37:16.826Z,2.22
2023-06-29T08:39:46.475Z,1.80
2023-06-29T08:42:16.170Z,1.52
2023-06-29T08:44:48.473Z,1.98
2023-06-29T08:47:18.414Z,1.65
2023-06-29T08:49:49.634Z,1.33
2023-06-29T08:52:20.089Z,1.80
2023-06-29T08:54:51.068Z,1.50
2023-06-29T08:57:20.866Z,2.03
2023-06-29T08:59:54.175Z,1.60
2023-06-29T09:02:24.312Z,1.70
2023-06-29T09:04:54.027Z,1.77
2023-06-29T09:07:25.037Z,1.45
2023-06-29T09:09:54.887Z,1.73
2023-06-29T09:12:24.511Z,1.55
2023-06-29T09:14:58.498Z,1.38
2023-06-29T09:17:29.716Z,1.70
2023-06-29T09:20:01.553Z,1.60
2023-06-29T09:22:31.808Z,1.50
2023-06-29T09:25:10.503Z,1.42
2023-06-29T09:27:45.839Z,1.63
2023-06-29T09:30:22.466Z,1.60
2023-06-29T09:32:52.261Z,1.35
2023-06-29T09:35:25.348Z,1.08
2023-06-29T09:37:55.158Z,1.80
2023-06-29T09:40:24.903Z,1.52
2023-06-29T09:42:54.671Z,1.58
2023-06-29T09:45:31.104Z,1.45
2023-06-29T09:50:34.005Z,1.50
2023-06-29T09:53:11.042Z,1.58
2023-06-29T09:55:42.190Z,1.60
2023-06-29T09:58:12.945Z,1.58
2023-06-29T10:00:45.469Z,1.45
2023-06-29T10:03:16.562Z,1.95
2023-06-29T10:05:46.629Z,1.63
2023-06-29T10:08:18.562Z,1.65
2023-06-29T10:10:49.009Z,1.67
2023-06-29T10:13:19.983Z,1.60
2023-06-29T10:15:53.137Z,1.92
2023-06-29T10:18:27.006Z,1.42
2023-06-29T10:20:57.017Z,1.38
2023-06-29T10:23:29.079Z,1.92
2023-06-29T10:25:59.264Z,1.85
2023-06-29T10:28:28.923Z,1.42
2023-06-29T10:31:03.603Z,1.67
2023-06-29T10:33:33.756Z,1.83
2023-06-29T10:36:04.024Z,1.98
2023-06-29T10:38:35.467Z,1.80
2023-06-29T10:41:05.387Z,1.60
2023-06-29T10:43:57.309Z,1.75
2023-06-29T10:46:41.991Z,1.13
2023-06-29T10:49:23.398Z,1.85
2023-06-29T10:51:54.415Z,1.40
2023-06-29T10:54:27.301Z,1.27
2023-06-29T10:57:00.864Z,1.75
2023-06-29T10:59:31.119Z,1.70
2023-06-29T11:02:01.202Z,1.58
2023-06-29T11:04:33.678Z,1.60
2023-06-29T11:07:08.703Z,1.55
2023-06-29T11:09:38.646Z,1.90
2023-06-29T11:12:08.714Z,1.30
2023-06-29T11:14:40.831Z,1.52
2023-06-29T11:17:10.713Z,1.55
2023-06-29T11:19:46.812Z,1.85
2023-06-29T11:22:16.589Z,1.48
2023-06-29T11:24:46.218Z,1.77
2023-06-29T11:27:19.101Z,1.58
2023-06-29T11:29:48.998Z,2.05
2023-06-29T11:32:19.859Z,2.00
2023-06-29T11:34:59.573Z,1.88
2023-06-29T11:37:29.445Z,1.90
2023-06-29T11:39:59.150Z,1.50
2023-06-29T11:42:29.293Z,2.03
2023-06-29T11:45:05.865Z,1.75
2023-06-29T11:47:35.667Z,1.90
2023-06-29T11:50:11.290Z,1.80
2023-06-29T11:52:43.074Z,1.40
2023-06-29T11:55:15.631Z,1.83
2023-06-29T11:57:46.138Z,1.90
2023-06-29T12:00:33.536Z,1.40
2023-06-29T12:03:10.423Z,1.63
2023-06-29T12:05:46.524Z,1.42
2023-06-29T12:08:18.599Z,1.80
2023-06-29T12:10:48.485Z,1.20
2023-06-29T12:13:18.144Z,2.05
2023-06-29T12:18:20.932Z,2.08
2023-06-29T12:20:54.919Z,1.83
2023-06-29T12:23:25.234Z,1.63
2023-06-29T12:25:54.877Z,1.88
2023-06-29T12:28:24.677Z,1.45
2023-06-29T12:30:54.586Z,1.73
2023-06-29T12:33:24.267Z,1.42
2023-06-29T12:35:56.867Z,1.80
2023-06-29T12:38:26.660Z,1.52
2023-06-29T12:40:56.338Z,1.42
2023-06-29T12:43:26.070Z,1.60
2023-06-29T12:45:55.701Z,1.58
2023-06-29T12:48:25.703Z,2.13
2023-06-29T12:51:01.299Z,1.73
2023-06-29T12:53:31.200Z,1.33
2023-06-29T12:56:00.866Z,1.30
2023-06-29T12:58:32.279Z,1.30
2023-06-29T13:01:04.165Z,1.20
2023-06-29T13:43:29.058Z,1.60
2023-06-29T13:45:58.834Z,1.63
2023-06-29T13:48:30.537Z,1.75
2023-06-29T13:51:00.313Z,1.92
2023-06-29T13:53:29.968Z,1.38
2023-06-29T13:55:59.611Z,1.63
2023-06-29T13:58:31.885Z,1.77
2023-06-29T14:01:01.785Z,1.83
2023-06-29T14:03:31.583Z,2.20
2023-06-29T14:06:01.418Z,1.83
2023-06-29T14:08:31.107Z,2.30
2023-06-29T14:11:00.839Z,1.80
2023-06-29T14:13:33.939Z,1.77
2023-06-29T14:16:03.661Z,1.77
2023-06-29T14:18:33.416Z,1.80
2023-06-29T14:21:03.194Z,1.77
2023-06-29T14:23:33.317Z,1.65
2023-06-29T14:26:03.054Z,1.70
2023-06-29T14:28:35.375Z,1.55
2023-06-29T14:31:05.660Z,1.52
2023-06-29T14:33:35.798Z,1.60
2023-06-29T14:36:06.268Z,1.88
2023-06-29T14:38:36.074Z,1.77
2023-06-29T14:41:06.025Z,1.80
2023-06-29T14:43:38.491Z,1.73
2023-06-29T14:46:08.295Z,1.38
2023-06-29T14:48:37.940Z,1.58
2023-06-29T14:51:07.794Z,1.77
2023-06-29T14:53:37.467Z,1.85
2023-06-29T14:56:07.753Z,1.63
2023-06-29T14:58:40.341Z,1.92
2023-06-29T15:01:10.213Z,1.50
2023-06-29T15:03:40.252Z,1.60
2023-06-29T15:06:10.181Z,1.42
2023-06-29T15:08:39.837Z,1.95
2023-06-29T15:11:09.484Z,1.83
2023-06-29T15:13:41.723Z,1.48
2023-06-29T15:16:11.516Z,1.70
2023-06-29T15:18:54.340Z,1.55
2023-06-29T15:21:29.245Z,2.03
2023-06-29T15:23:58.896Z,1.70
2023-06-29T15:26:28.688Z,1.67
2023-06-29T15:29:01.039Z,1.50
2023-06-29T15:31:30.788Z,1.50
2023-06-29T15:34:00.496Z,1.58
2023-06-29T15:36:30.187Z,1.52
2023-06-29T15:38:59.987Z,1.60
2023-06-29T15:41:30.496Z,1.80
2023-06-29T15:44:04.127Z,1.63
2023-06-29T15:46:33.822Z,1.88
2023-06-29T15:49:03.511Z,1.80
2023-06-29T15:51:33.226Z,1.80
2023-06-29T15:54:02.858Z,1.50
2023-06-29T15:56:32.459Z,1.73
2023-06-29T15:59:04.867Z,1.70
2023-06-29T16:01:34.586Z,1.67
2023-06-29T16:04:04.770Z,1.60
2023-06-29T16:06:35.867Z,1.77
2023-06-29T16:09:05.558Z,1.40
2023-06-29T16:11:35.218Z,1.88
2023-06-29T16:14:07.613Z,1.55
2023-06-29T16:16:37.437Z,1.85
2023-06-29T16:19:07.140Z,1.90
2023-06-29T16:21:36.964Z,1.92
2023-06-29T16:24:06.817Z,1.80
2023-06-29T16:26:36.507Z,1.77
2023-06-29T16:29:09.610Z,1.58
2023-06-29T16:31:40.517Z,1.98
2023-06-29T16:34:12.139Z,1.38
2023-06-29T16:36:42.552Z,1.83
2023-06-29T16:39:12.433Z,2.13
2023-06-29T16:41:43.750Z,2.25
2023-06-29T16:44:16.056Z,1.92
2023-06-29T16:46:50.217Z,2.22
2023-06-29T16:49:20.563Z,1.80
2023-06-29T16:51:50.390Z,1.85
2023-06-29T16:54:20.024Z,1.90
2023-06-29T16:56:49.848Z,2.00
2023-06-29T16:59:22.260Z,1.85
2023-06-29T17:01:52.297Z,1.80
2023-06-29T17:04:22.808Z,1.85
2023-06-29T17:06:52.467Z,1.88
2023-06-29T17:09:22.188Z,1.42
2023-06-29T17:11:51.918Z,1.85
2023-06-29T17:14:24.143Z,1.70
2023-06-29T17:16:54.380Z,1.92
2023-06-29T17:19:24.084Z,1.73
2023-06-29T17:21:53.701Z,1.92
2023-06-29T17:24:23.384Z,2.47
2023-06-29T17:26:52.983Z,2.00
2023-06-29T17:29:25.288Z,1.98
2023-06-29T17:31:55.059Z,1.75
2023-06-29T17:34:24.805Z,2.25
2023-06-29T17:36:54.552Z,1.85
2023-06-29T17:39:24.721Z,1.80
2023-06-29T17:41:54.672Z,1.92
2023-06-29T17:44:26.944Z,2.20
2023-06-29T17:46:56.734Z,1.98
2023-06-29T17:49:28.177Z,2.00
2023-06-29T17:51:58.152Z,2.20
2023-06-29T17:54:27.849Z,2.10
2023-06-29T17:56:57.478Z,2.20
2023-06-29T17:59:29.758Z,2.00
2023-06-29T18:01:59.532Z,2.00
2023-06-29T18:04:29.380Z,1.58
2023-06-29T18:07:00.770Z,1.88
2023-06-29T18:09:30.542Z,2.17
2023-06-29T18:12:00.205Z,2.35
2023-06-29T18:14:32.610Z,2.45
2023-06-29T18:17:02.445Z,1.90
2023-06-29T18:19:32.068Z,1.98
2023-06-29T18:22:01.857Z,1.95
2023-06-29T18:24:31.612Z,1.85
2023-06-29T18:27:03.507Z,1.85
2023-06-29T18:29:35.793Z,1.80
2023-06-29T18:32:05.609Z,2.08
2023-06-29T18:34:35.265Z,2.15
2023-06-29T18:37:04.872Z,1.92
2023-06-29T18:39:34.617Z,1.75
2023-06-29T18:42:04.362Z,2.00
2023-06-29T18:44:36.959Z,2.33
2023-06-29T18:47:07.843Z,2.70
2023-06-29T18:49:50.660Z,2.38
2023-06-29T18:52:21.730Z,2.30
2023-06-29T18:54:53.913Z,2.08
2023-06-29T18:57:23.954Z,2.10
2023-06-29T18:59:56.533Z,1.92
2023-06-29T19:02:26.267Z,2.40
2023-06-29T19:04:56.017Z,2.38
2023-06-29T19:07:25.943Z,2.20
2023-06-29T19:09:55.609Z,1.95
2023-06-29T19:12:25.271Z,2.17
2023-06-29T19:14:58.007Z,2.45
2023-06-29T19:17:29.321Z,2.20
2023-06-29T19:19:59.505Z,2.15
2023-06-29T19:22:29.383Z,1.95
2023-06-29T19:25:00.237Z,2.10
2023-06-29T19:27:30.038Z,1.92
2023-06-29T19:30:02.292Z,2.15
2023-06-29T19:32:32.658Z,2.47
2023-06-29T19:35:02.346Z,2.17
2023-06-29T19:37:32.059Z,2.10
2023-06-29T19:40:01.760Z,2.28
2023-06-29T19:42:31.587Z,2.17
2023-06-29T19:45:03.865Z,2.28
2023-06-29T19:47:33.990Z,2.70
2023-06-29T19:50:05.086Z,2.63
2023-06-29T19:52:34.919Z,2.28
2023-06-29T19:55:04.564Z,2.17
2023-06-29T19:57:34.267Z,2.60
2023-06-29T20:00:07.147Z,3.28
2023-06-29T20:02:54.816Z,2.83
2023-06-29T20:05:24.771Z,2.67
2023-06-29T20:07:55.765Z,2.20
2023-06-29T20:10:25.705Z,1.75
2023-06-29T20:12:55.327Z,2.45
2023-06-29T20:15:27.910Z,2.53
2023-06-29T20:17:57.641Z,2.60
2023-06-29T20:20:27.336Z,2.10
2023-06-29T20:22:57.005Z,2.13
2023-06-29T20:25:27.919Z,2.60
2023-06-29T20:27:57.582Z,2.55
2023-06-29T20:30:29.828Z,2.15
2023-06-29T20:32:59.710Z,1.95
2023-06-29T20:35:30.856Z,2.88
2023-06-29T20:38:00.611Z,2.47
2023-06-29T20:40:30.243Z,2.60
2023-06-29T20:43:01.052Z,2.42
2023-06-29T20:45:33.371Z,2.45
2023-06-29T20:48:03.225Z,2.30
2023-06-29T20:50:32.936Z,2.45
2023-06-29T20:53:02.728Z,2.65
2023-06-29T20:55:32.489Z,2.50
2023-06-29T20:58:02.220Z,2.65
2023-06-29T21:00:35.561Z,2.20
2023-06-29T21:03:05.527Z,2.40
2023-06-29T21:05:36.086Z,2.47
2023-06-29T21:08:05.930Z,2.40
2023-06-29T21:10:35.648Z,2.67
2023-06-29T21:13:05.563Z,2.55
2023-06-29T21:15:38.047Z,2.10
2023-06-29T21:18:08.251Z,2.50
2023-06-29T21:20:38.648Z,2.65
2023-06-29T21:23:08.567Z,2.72
2023-06-29T21:25:38.455Z,2.45
2023-06-29T21:28:10.913Z,2.55
2023-06-29T21:30:44.311Z,2.65
2023-06-29T21:33:14.371Z,2.50
2023-06-29T21:35:44.546Z,2.33
2023-06-29T21:38:14.729Z,2.53
2023-06-29T21:40:44.445Z,2.72
2023-06-29T21:43:14.219Z,2.70
2023-06-29T21:45:46.694Z,2.97
2023-06-29T21:48:17.114Z,2.63
2023-06-29T21:50:47.166Z,2.70
2023-06-29T21:53:17.243Z,2.83
2023-06-29T21:55:47.393Z,2.88
2023-06-29T21:58:17.377Z,2.83
2023-06-29T22:00:49.685Z,2.65
2023-06-29T22:03:19.567Z,2.50
2023-06-29T22:05:49.288Z,2.83
2023-06-29T22:08:18.967Z,2.67
2023-06-29T22:10:48.857Z,2.80
2023-06-29T22:13:18.491Z,2.33
2023-06-29T22:15:53.454Z,2.55
2023-06-29T22:18:24.816Z,2.50
2023-06-29T22:20:54.648Z,2.60
2023-06-29T22:23:24.870Z,2.65
2023-06-29T22:25:54.583Z,3.00
2023-06-29T22:28:24.259Z,2.53
2023-06-29T22:30:56.652Z,2.40
2023-06-29T22:33:26.421Z,3.05
2023-06-29T22:35:56.108Z,2.92
2023-06-29T22:38:25.807Z,2.88
2023-06-29T22:40:55.467Z,2.75
2023-06-29T22:43:25.101Z,2.70
2023-06-29T22:45:57.471Z,2.97
2023-06-29T22:48:27.263Z,2.75
2023-06-29T22:50:57.038Z,2.53
2023-06-29T22:53:27.349Z,2.65
2023-06-29T22:55:57.060Z,2.50
2023-06-29T22:58:28.415Z,2.83
2023-06-29T23:01:00.791Z,3.15
2023-06-29T23:03:30.610Z,2.92
2023-06-29T23:06:00.299Z,2.97
2023-06-29T23:08:29.952Z,2.88
2023-06-29T23:10:59.553Z,3.05
2023-06-29T23:13:29.253Z,3.10
2023-06-29T23:16:01.917Z,2.78
2023-06-29T23:18:31.691Z,2.88
2023-06-29T23:21:03.753Z,3.00
2023-06-29T23:23:33.632Z,3.03
2023-06-29T23:26:03.248Z,3.03
2023-06-29T23:28:32.929Z,3.40
2023-06-29T23:31:05.211Z,3.50
2023-06-29T23:33:35.448Z,2.35
2023-06-29T23:36:05.108Z,3.08
2023-06-29T23:38:34.713Z,2.83
2023-06-29T23:41:04.879Z,3.00
2023-06-29T23:43:34.525Z,3.85
2023-06-29T23:46:07.348Z,3.60
2023-06-29T23:48:37.045Z,3.40
2023-06-29T23:51:06.767Z,3.60
2023-06-29T23:53:36.363Z,3.67
2023-06-29T23:56:09.367Z,3.67
2023-06-29T23:58:39.031Z,3.40
